Terminal Aerodrome Forecast
Issued by NWS Wichita, KS

Home | Current Version | Previous Version | Graphics & Text | Print | Product List | Glossary On
Versions: 1 2 3 4 5 6 7 8 9 10 11 12 13 14 15 16 17 18 19
912
FTUS43 KICT 200239 AAA
TAFICT
TAF AMD
KICT 200239Z 2003/2024 16010KT P6SM BKN025
      TEMPO 2003/2007 4SM -TSRA OVC015CB
     FM200700 17010KT 4SM -SHRA BR VCTS OVC010CB
     FM201500 19010KT P6SM SCT015=

USA.gov is the U.S. government's official web portal to all federal, state and local government web resources and services.